Detroit, Michigan
Traffic Map
Current Weather Conditions
Detroit, Michigan
Overcast
Overcast
45°
Feels Like: 37°
Wind Chill: 37° Ceiling: 2200
Heat Index: 45° Visibility: 12mi
Dew Point: 39° Wind: 17mph
Humidity: 81% Direction: 350° (N)
Pressure: 30.09in Gusts: 26mph
Raw Report DataCYQG 212100Z 35015G23KT 12SM OVC022 07/04 A3009 RMK SC8 SLP193
Traffic Incident Summary
Active as of:
Severity:
Category:
InformationThere was an issue retrieving the traffic information for this location. Please try a different location or try again shortly.
Advertisements
Track Severe Weather on mobile